Latest Weather Observations for Beaudesert AWS

IDQ60901

Issued at 11:51 pm EST Tuesday 12 December 2017 (issued every 10 minutes, with the page automatically refreshed every 10 minutes)

About weather observations | Map of Brisbane area stations | Latest observations for Brisbane area | Other Formats
Station Details ID: 040983 Name: BEAUDESERT DRUMLEY STREET Lat: -27.97 Lon: 152.99 Height: 47.81 m
Data from the previous 72 hours. | See also: Recent months at Beaudesert AWS
Date/Time
EST
Temp
°C
App
Temp
°C
Dew
Point
°C
Rel
Hum
%
Delta-T
°C
Wind Press
QNH
hPa
Press
MSL
hPa
Rain since
9am
mm
Dir  Spd
km/h
Gust
km/h
Spd
kts
Gust
kts
12/11:30pm 16.8 18.4 15.0 89 1.0 CALM 0 0 0 0 1017.1 1016.9 0.0
12/11:00pm 18.1 19.3 15.9 87 1.3 N 4 6 2 3 1017.3 1017.1 0.0
12/10:30pm 18.7 20.9 16.5 87 1.3 CALM 0 0 0 0 1017.4 1017.2 0.0
12/10:00pm 19.0 20.4 16.4 85 1.6 N 4 6 2 3 1017.5 1017.3 0.0
12/09:30pm 19.3 20.9 16.0 81 2.0 NNE 2 4 1 2 1017.5 1017.3 0.0
12/09:00pm 19.9 21.1 16.0 78 2.3 NNE 4 6 2 3 1017.6 1017.4 0.0
12/08:30pm 21.4 21.5 16.6 74 2.9 NE 11 15 6 8 1017.5 1017.3 0.0
12/08:00pm 22.0 22.0 16.3 70 3.5 ENE 11 19 6 10 1017.3 1017.1 0.0
12/07:30pm 22.7 22.4 16.5 68 3.8 NE 13 24 7 13 1017.0 1016.8 0.0
12/07:00pm 23.3 23.4 16.4 65 4.2 E 11 20 6 11 1016.7 1016.5 0.0
12/06:30pm 24.2 23.7 15.9 59 5.0 E 13 24 7 13 1016.3 1016.1 0.0
12/06:00pm 25.5 24.3 16.1 56 5.8 E 17 30 9 16 1015.9 1015.7 0.0
12/05:30pm 26.5 25.2 15.8 51 6.5 E 17 28 9 15 1015.6 1015.4 0.0
12/05:00pm 27.4 26.3 15.4 48 7.3 ENE 15 22 8 12 1015.2 1015.0 0.0
12/04:30pm 27.7 25.4 14.0 43 8.2 E 19 26 10 14 1014.9 1014.7 0.0
12/04:00pm 27.9 25.7 14.9 45 7.9 E 20 28 11 15 1014.8 1014.6 0.0
12/03:30pm 28.5 27.3 16.1 47 7.7 E 17 28 9 15 1014.9 1014.7 0.0
12/03:00pm 29.2 28.6 15.7 44 8.3 E 13 20 7 11 1015.0 1014.8 0.0
12/02:30pm 29.0 28.3 15.5 44 8.3 ESE 13 24 7 13 1015.1 1014.9 0.0
12/02:00pm 29.1 28.9 15.6 44 8.3 SE 11 19 6 10 1015.4 1015.2 0.0
12/01:30pm 27.9 28.5 15.2 46 7.7 ENE 6 13 3 7 1015.6 1015.4 0.0
12/01:00pm 28.7 28.5 15.6 45 8.1 SE 11 20 6 11 1015.8 1015.6 0.0
12/12:30pm 28.3 28.2 15.9 47 7.7 SSE 11 22 6 12 1016.1 1015.9 0.0
12/12:00pm 28.4 27.7 15.3 45 8.0 E 13 22 7 12 1016.4 1016.2 0.0
12/11:30am 27.8 26.6 15.1 46 7.7 SE 15 22 8 12 1016.8 1016.6 0.0
12/11:00am 27.7 26.7 15.7 48 7.4 SE 15 24 8 13 1017.2 1017.0 0.0
12/10:30am 26.1 26.8 16.1 54 6.1 SSW 7 17 4 9 1017.6 1017.4 0.0
12/10:00am 26.0 27.4 17.9 61 5.1 SW 7 15 4 8 1017.6 1017.4 0.0
12/09:30am 24.4 23.7 16.4 61 4.9 SW 15 22 8 12 1017.6 1017.4 0.0
12/09:00am 24.4 24.1 16.4 61 4.9 SW 13 22 7 12 1017.7 1017.5 0.0
12/08:30am 24.4 24.7 17.1 63 4.5 SSW 11 17 6 9 1017.7 1017.5 0.0
12/08:00am 23.0 22.6 16.3 66 4.1 SSW 13 17 7 9 1017.7 1017.5 0.0
12/07:30am 22.7 23.7 16.9 70 3.6 SSW 7 15 4 8 1017.7 1017.5 0.0
12/07:00am 21.4 22.9 16.6 74 2.9 SSW 4 9 2 5 1017.7 1017.5 0.0
12/06:30am 19.7 21.6 15.8 78 2.3 CALM 0 0 0 0 1017.6 1017.4 0.0
12/06:00am 18.9 20.9 16.0 83 1.7 CALM 0 0 0 0 1017.3 1017.1 0.0
12/05:30am 17.0 19.1 16.2 95 0.5 CALM 0 0 0 0 1016.8 1016.6 0.0
12/05:00am 15.6 17.2 15.0 96 0.3 CALM 0 0 0 0 1016.5 1016.3 0.0
12/04:30am 15.8 17.5 15.3 97 0.3 CALM 0 0 0 0 1016.6 1016.4 0.0
12/04:00am 14.7 16.0 14.1 96 0.3 CALM 0 0 0 0 1016.3 1016.1 0.0
12/03:30am 14.6 15.8 13.8 95 0.4 CALM 0 0 0 0 1016.3 1016.1 0.0
12/03:00am 14.8 16.1 14.0 95 0.5 CALM 0 0 0 0 1016.2 1016.0 0.0
12/02:30am 14.4 15.5 13.4 94 0.6 CALM 0 0 0 0 1016.3 1016.1 0.0
12/02:00am 14.8 16.0 13.7 93 0.6 CALM 0 0 0 0 1016.4 1016.2 0.0
12/01:30am 15.6 17.0 14.3 92 0.7 CALM 0 0 0 0 1016.6 1016.4 0.0
12/01:00am 15.9 17.1 14.8 93 0.6 ENE 2 4 1 2 1016.8 1016.6 0.0
12/12:30am 15.9 17.5 14.8 93 0.6 CALM 0 0 0 0 1017.2 1017.0 0.0
12/12:00am 16.2 17.8 14.9 92 0.7 CALM 0 0 0 0 1017.7 1017.5 0.0
 
Date/Time
EST
Temp
°C
App
Temp
°C
Dew
Point
°C
Rel
Hum
%
Delta-T
°C
Wind Press
QNH
hPa
Press
MSL
hPa
Rain since
9am
mm
Dir  Spd
km/h
Gust
km/h
Spd
kts
Gust
kts
11/11:30pm 16.6 18.3 15.1 91 0.9 CALM 0 2 0 1 1018.0 1017.8 0.0
11/11:00pm 17.6 19.6 16.1 91 0.9 CALM 0 0 0 0 1018.1 1017.9 0.0
11/10:30pm 17.5 19.4 15.7 89 1.1 CALM 0 4 0 2 1018.2 1018.0 0.0
11/10:00pm 17.9 19.6 15.3 85 1.5 CALM 0 0 0 0 1018.0 1017.8 0.0
11/09:30pm 19.7 21.9 16.5 82 1.9 CALM 0 2 0 1 1017.9 1017.7 0.0
11/09:00pm 19.1 20.3 15.8 81 2.0 NNE 4 6 2 3 1017.6 1017.4 0.0
11/08:30pm 20.1 21.3 15.9 77 2.5 ESE 4 7 2 4 1017.4 1017.2 0.0
11/08:00pm 21.2 22.0 16.4 74 2.9 E 7 13 4 7 1016.8 1016.6 0.0
11/07:30pm 21.7 22.5 16.4 72 3.2 ENE 7 11 4 6 1016.5 1016.3 0.0
11/07:00pm 22.4 23.5 16.7 70 3.5 NE 6 11 3 6 1016.2 1016.0 0.0
11/06:30pm 23.2 23.8 16.7 67 4.0 ENE 9 17 5 9 1015.7 1015.5 0.0
11/06:00pm 24.1 23.6 16.9 64 4.4 E 15 20 8 11 1015.3 1015.1 0.0
11/05:30pm 24.9 24.4 16.9 61 5.0 E 15 24 8 13 1014.9 1014.7 0.0
11/05:00pm 26.2 25.6 17.6 59 5.4 E 17 26 9 14 1014.5 1014.3 0.0
11/04:30pm 27.4 27.7 17.8 55 6.1 NE 13 22 7 12 1014.2 1014.0 0.0
11/04:00pm 27.6 27.0 17.5 54 6.4 ENE 17 24 9 13 1014.2 1014.0 0.0
11/03:30pm 26.8 27.4 17.6 57 5.8 NE 11 19 6 10 1014.3 1014.1 0.0
11/03:00pm 28.5 29.4 18.3 54 6.5 NE 11 15 6 8 1014.5 1014.3 0.0
11/02:30pm 28.6 30.5 16.8 48 7.4 W 2 6 1 3 1014.9 1014.7 0.0
11/02:00pm 29.2 30.7 18.0 51 7.1 SW 7 13 4 7 1015.2 1015.0 0.0
11/01:30pm 28.2 29.9 17.1 51 7.0 S 4 9 2 5 1015.6 1015.4 0.0
11/01:00pm 27.8 28.8 16.4 50 7.1 ENE 6 11 3 6 1015.9 1015.7 0.0
11/12:30pm 28.0 29.4 17.8 54 6.5 SW 7 13 4 7 1016.4 1016.2 0.0
11/12:00pm 27.0 28.4 16.3 52 6.6 SW 4 7 2 4 1016.9 1016.7 0.0
11/11:30am 26.4 26.3 16.9 56 5.9 WSW 13 19 7 10 1017.3 1017.1 0.0
11/11:00am 26.6 28.0 17.7 58 5.6 SSW 7 13 4 7 1017.6 1017.4 0.0
11/10:30am 26.6 27.7 17.9 59 5.5 SW 9 11 5 6 1017.8 1017.6 0.0
11/10:00am 25.9 27.4 16.7 57 5.7 SSW 4 11 2 6 1017.9 1017.7 0.0
11/09:30am 25.9 26.8 16.2 55 6.0 S 6 13 3 7 1018.0 1017.8 0.0
11/09:00am 25.3 26.6 17.0 60 5.1 SW 6 7 3 4 1018.3 1018.1 0.0
11/08:30am 24.9 26.1 16.9 61 5.0 ESE 6 11 3 6 1018.4 1018.2 0.0
11/08:00am 24.3 24.9 16.8 63 4.6 S 9 15 5 8 1018.4 1018.2 0.0
11/07:30am 23.2 23.7 16.5 66 4.1 S 9 15 5 8 1018.5 1018.3 0.0
11/07:00am 22.1 23.6 17.5 75 2.8 SW 6 9 3 5 1018.3 1018.1 0.0
11/06:30am 20.7 22.9 16.5 77 2.5 CALM 0 4 0 2 1018.1 1017.9 0.0
11/06:00am 19.0 21.7 17.8 93 0.7 CALM 0 0 0 0 1018.0 1017.8 0.0
11/05:30am 16.5 18.5 16.0 97 0.3 CALM 0 0 0 0 1017.7 1017.5 0.0
11/05:00am 15.2 16.3 14.6 96 0.3 NE 2 4 1 2 1017.5 1017.3 0.0
11/04:30am 15.0 16.4 14.4 96 0.3 CALM 0 2 0 1 1017.3 1017.1 0.0
11/04:00am 15.0 16.3 14.2 95 0.5 CALM 0 0 0 0 1017.3 1017.1 0.0
11/03:30am 15.5 17.0 14.7 95 0.5 CALM 0 0 0 0 1017.2 1017.0 0.0
11/03:00am 15.4 16.8 14.4 94 0.6 CALM 0 0 0 0 1017.3 1017.1 0.0
11/02:30am 15.3 16.6 14.0 92 0.7 CALM 0 0 0 0 1017.4 1017.2 0.0
11/02:00am 15.9 17.4 14.6 92 0.7 CALM 0 0 0 0 1017.6 1017.4 0.0
11/01:30am 16.5 17.4 15.2 92 0.8 NNE 4 6 2 3 1018.0 1017.8 0.0
11/01:00am 16.3 17.5 14.8 91 0.9 N 2 4 1 2 1018.4 1018.2 0.0
11/12:30am 16.5 18.0 14.7 89 1.0 CALM 0 6 0 3 1018.7 1018.5 0.0
11/12:00am 17.7 18.9 15.0 84 1.6 NE 2 4 1 2 1019.0 1018.8 0.0
 
Date/Time
EST
Temp
°C
App
Temp
°C
Dew
Point
°C
Rel
Hum
%
Delta-T
°C
Wind Press
QNH
hPa
Press
MSL
hPa
Rain since
9am
mm
Dir  Spd
km/h
Gust
km/h
Spd
kts
Gust
kts
10/11:30pm 18.3 19.5 15.9 86 1.4 SE 4 6 2 3 1019.2 1019.0 0.0
10/11:00pm 18.4 20.4 16.0 86 1.4 CALM 0 2 0 1 1019.6 1019.4 0.0
10/10:30pm 17.5 19.2 15.1 86 1.4 CALM 0 0 0 0 1019.7 1019.5 0.0
10/10:00pm 18.4 20.2 15.6 84 1.6 CALM 0 0 0 0 1019.8 1019.6 0.0
10/09:30pm 19.1 20.9 15.6 80 2.1 CALM 0 0 0 0 1019.8 1019.6 0.0
10/09:00pm 19.7 21.5 15.4 76 2.5 CALM 0 0 0 0 1019.8 1019.6 0.0
10/08:30pm 20.4 21.6 15.0 71 3.2 ESE 2 4 1 2 1019.5 1019.3 0.0
10/08:00pm 22.2 22.7 15.5 66 4.0 ESE 7 9 4 5 1019.2 1019.0 0.0
10/07:30pm 22.7 22.0 15.3 63 4.4 SE 13 20 7 11 1018.9 1018.7 0.0
10/07:00pm 23.0 22.6 15.3 62 4.6 ESE 11 17 6 9 1018.6 1018.4 0.0
10/06:30pm 24.0 23.8 15.8 60 5.0 SE 11 17 6 9 1018.2 1018.0 0.0
10/06:00pm 24.7 24.1 15.6 57 5.5 ESE 13 22 7 12 1017.9 1017.7 0.0
10/05:30pm 25.0 23.4 15.9 57 5.5 SE 19 28 10 15 1017.5 1017.3 0.0
10/05:00pm 26.6 25.2 15.6 50 6.7 SE 17 26 9 14 1016.9 1016.7 0.0
10/04:30pm 27.1 26.0 16.4 52 6.6 ESE 17 26 9 14 1016.7 1016.5 0.0
10/04:00pm 27.3 25.9 16.6 52 6.6 ESE 19 30 10 16 1016.5 1016.3 0.0
10/03:30pm 27.6 26.6 14.6 45 7.8 ESE 13 24 7 13 1016.4 1016.2 0.0
10/03:00pm 28.8 28.6 16.7 48 7.6 E 13 24 7 13 1016.5 1016.3 0.0
10/02:30pm 27.7 27.4 17.3 53 6.5 ESE 15 24 8 13 1016.8 1016.6 0.0
10/02:00pm 28.0 28.8 16.3 49 7.2 ESE 7 13 4 7 1016.8 1016.6 0.0
10/01:30pm 27.7 28.0 16.9 51 6.8 S 11 22 6 12 1017.0 1016.8 0.0
10/01:00pm 28.0 29.1 17.2 52 6.8 SSE 7 17 4 9 1017.2 1017.0 0.0
10/12:30pm 28.8 28.7 16.0 45 7.9 ESE 11 19 6 10 1017.5 1017.3 0.0
10/12:00pm 27.7 28.1 16.3 49 7.1 NNE 9 15 5 8 1017.9 1017.7 0.0
10/11:30am 27.2 27.9 16.2 51 6.8 N 7 15 4 8 1018.4 1018.2 0.0
10/11:00am 26.4 26.3 16.9 56 5.9 WSW 13 20 7 11 1018.7 1018.5 0.0
10/10:30am 26.1 26.1 18.2 61 5.0 SW 15 20 8 11 1019.0 1018.8 0.0
10/10:00am 26.0 25.7 18.2 62 4.9 SW 17 26 9 14 1019.0 1018.8 0.0
10/09:30am 24.3 23.4 16.8 63 4.6 SSW 17 28 9 15 1019.1 1018.9 0.0
10/09:00am 24.6 24.5 17.8 66 4.3 SW 15 22 8 12 1019.3 1019.1 18.6
10/08:30am 24.0 23.4 17.5 67 4.0 SSW 17 24 9 13 1019.1 1018.9 18.6
10/08:00am 23.5 23.3 17.5 69 3.7 SW 15 22 8 12 1019.0 1018.8 18.6
10/07:30am 22.8 22.5 17.3 71 3.4 SSW 15 20 8 11 1018.9 1018.7 18.6
10/07:00am 22.2 23.4 17.3 74 3.0 N 7 15 4 8 1018.9 1018.7 18.6
10/06:30am 21.0 23.2 17.4 80 2.2 ESE 2 4 1 2 1018.8 1018.6 18.6
10/06:00am 19.3 21.6 17.6 90 1.0 N 2 2 1 1 1018.5 1018.3 18.6
10/05:30am 18.3 20.3 17.8 97 0.3 N 4 4 2 2 1018.3 1018.1 18.6
10/05:00am 16.9 18.4 16.6 98 0.2 NNE 4 7 2 4 1018.1 1017.9 18.6
10/04:30am 16.4 18.1 16.1 98 0.2 NNE 2 6 1 3 1017.9 1017.7 18.6
10/04:00am 17.0 19.3 16.7 98 0.2 CALM 0 0 0 0 1017.5 1017.3 18.6
10/03:30am 16.9 19.1 16.6 98 0.2 CALM 0 2 0 1 1017.5 1017.3 18.4
10/03:00am 16.8 18.9 16.3 97 0.3 CALM 0 0 0 0 1017.5 1017.3 18.4
10/02:30am 17.3 19.3 17.0 98 0.2 N 2 4 1 2 1017.6 1017.4 18.4
10/02:00am 17.3 19.3 17.0 98 0.2 NNE 2 4 1 2 1017.7 1017.5 18.4
10/01:30am 16.6 18.6 16.1 97 0.3 CALM 0 0 0 0 1017.8 1017.6 18.4
10/01:00am 17.0 19.2 16.5 97 0.3 CALM 0 0 0 0 1017.8 1017.6 18.4
10/12:30am 17.1 19.3 16.6 97 0.3 CALM 0 0 0 0 1017.8 1017.6 18.4
10/12:00am 17.5 20.0 17.2 98 0.2 CALM 0 0 0 0 1018.0 1017.8 18.4

Latest Capital City Observations: Canberra | Sydney | Melbourne | Brisbane | Adelaide | Perth | Hobart | Darwin

Other Formats:

Comma delimited format used in spreadsheet applications
http://www.bom.gov.au/fwo/IDQ60901/IDQ60901.95575.axf

JavaScript Object Notation format (JSON) in row-major order
http://www.bom.gov.au/fwo/IDQ60901/IDQ60901.95575.json